首页
METAR-TAF:

METAR-TAF

机场 :

金伯利機場

金伯利, 南非共和國

纬度: 28-48S, 经度: 024-46E, 海拔: 1198米

当前天气观测

该预报发布于39分钟前的16:00 UTC
风速5节,风向西转西北
温度 18°C
湿度 52%
气压 1019 hPa
能见度10公里或以上
1500米以下无云,无积雨云

METAR: FAKM 171600Z 29005KT CAVOK 18/08 Q1019

时间: 18:39 (16:39 UTC)

预报

该预报发布于7小时和34分钟前的09:05 UTC
预报有效从17日的 10点(UTC)到 17日的 18点(UTC)
风速8节,风向
能见度10公里或以上
1500米以下无云,无积雨云

TAF: FAKM 170905Z 1710/1718 36008KT CAVOK TX25/1712Z TN15/1718Z

超过4000个机场的气象观测和天气预报(METAR&TAF报告)。

可查询的气象台以黄色和红色小点在地图上表示。

将鼠标移到小点上方,可查看气象台名称。

然后点击查看天气观测和预报。

如需切换地图:点击带黑十字的绿色按钮放大地图;点击带横线的绿色按钮缩小地图;或者点击绿色箭头查看邻近地区的地图。


METAR-TAF: